Terminal Aerodrome Forecast
Issued by NWS

Home | Current Version | Previous Version | Text Only | Print | Product List | Glossary On
Versions: 1 2 3 4 5 6 7 8 9 10 11 12 13 14 15 16 17 18 19 20
000
FTUS41 KCAR 290100 AAA
TAFFVE
TAF AMD
KFVE 290159Z 2902/2924 15013KT P6SM OVC003
     FM290500 13007KT 1SM -SHRA BR OVC003
     FM290800 17008KT 1/2SM -SHRA FG OVC001
     FM291300 21007KT 3SM -SHRA OVC008
     FM291500 21009KT P6SM BKN025
     FM291800 21011KT P6SM BKN050=

USA.gov is the U.S. government's official web portal to all federal, state and local government web resources and services.